Time;durP1;ratioP1;P1;durP2;ratioP2;P2;SDS_P1;SDS_P2;PMS_P1;PMS_P2;Temp;Humidity;BMP_temperature;BMP_pressure;BME280_temperature;BME280_humidity;BME280_pressure;Samples;Min_cycle;Max_cycle;Signal;HPM_P1;HPM_P2
2023/09/11 00:02:44;;;;;;;10.13;9.13;;;;;;;;;;6220569;28;20218;-65
2023/09/11 00:05:48;;;;;;;11.53;9.10;;;17.00;82.40;;;;;;6228189;28;20203;-65
2023/09/11 00:08:49;;;;;;;10.60;9.70;;;16.60;83.50;;;;;;6227058;28;20341;-65
2023/09/11 00:11:50;;;;;;;9.97;9.07;;;16.60;83.40;;;;;;6193046;28;20187;-65
2023/09/11 00:14:50;;;;;;;10.30;9.30;;;16.60;83.60;;;;;;6201732;28;20258;-65
2023/09/11 00:17:51;;;;;;;10.43;9.43;;;16.60;83.30;;;;;;6208665;28;20230;-65
2023/09/11 00:20:52;;;;;;;10.33;9.23;;;16.60;83.20;;;;;;6192319;28;20192;-65
2023/09/11 00:23:53;;;;;;;10.73;9.63;;;16.50;83.70;;;;;;6204949;28;20250;-65
2023/09/11 00:26:53;;;;;;;10.87;9.67;;;16.50;84.10;;;;;;6193096;28;20235;-65
2023/09/11 00:29:54;;;;;;;11.47;9.63;;;16.60;83.70;;;;;;6207040;28;20179;-65
2023/09/11 00:32:55;;;;;;;9.93;8.87;;;16.50;84.00;;;;;;6188032;28;20191;-65
2023/09/11 00:35:56;;;;;;;10.47;9.47;;;16.50;83.70;;;;;;6214333;28;20238;-65
2023/09/11 00:38:57;;;;;;;10.80;9.70;;;16.50;83.60;;;;;;6192559;28;20190;-65
2023/09/11 00:41:57;;;;;;;10.03;8.73;;;16.50;83.40;;;;;;6192215;28;20229;-65
2023/09/11 00:44:58;;;;;;;10.23;9.23;;;16.40;83.70;;;;;;6199927;28;20191;-65
2023/09/11 00:47:59;;;;;;;10.47;9.57;;;16.40;83.90;;;;;;6191803;28;20234;-65
2023/09/11 00:51:00;;;;;;;10.37;9.47;;;16.40;84.00;;;;;;6191385;28;20180;-65
2023/09/11 00:54:01;;;;;;;10.60;9.60;;;16.40;84.20;;;;;;6220569;28;20179;-65
2023/09/11 00:57:02;;;;;;;10.33;9.43;;;16.40;84.10;;;;;;6191318;28;20199;-65
2023/09/11 01:00:04;;;;;;;9.77;8.97;;;16.40;83.70;;;;;;6207881;28;20274;-65
2023/09/11 01:03:05;;;;;;;10.93;10.00;;;16.40;83.70;;;;;;6188934;28;20183;-65
2023/09/11 01:06:07;;;;;;;10.13;9.13;;;16.40;83.60;;;;;;6207482;28;20195;-65
2023/09/11 01:09:08;;;;;;;11.00;9.93;;;16.30;84.00;;;;;;6204740;28;20198;-65
2023/09/11 01:12:09;;;;;;;11.60;10.50;;;16.30;84.50;;;;;;6223809;28;20195;-66
2023/09/11 01:15:10;;;;;;;10.70;9.60;;;16.20;84.40;;;;;;6200648;28;20188;-66
2023/09/11 01:18:21;;;;;;;10.73;9.83;;;16.20;83.80;;;;;;6235863;28;20201;-65
2023/09/11 01:21:41;;;;;;;10.37;9.47;;;16.20;83.70;;;;;;6223905;28;20195;-66
2023/09/11 01:24:50;;;;;;;10.50;9.60;;;;;;;;;;6210928;28;20236;-65
2023/09/11 01:28:05;;;;;;;9.73;8.83;;;;;;;;;;6223484;28;20219;-65
2023/09/11 01:31:07;;;;;;;9.17;8.27;;;;;;;;;;6217092;28;20188;-65
2023/09/11 01:34:08;;;;;;;9.80;8.80;;;;;;;;;;6202630;28;20220;-65
2023/09/11 01:37:09;;;;;;;9.90;9.00;;;;;;;;;;6225132;28;20278;-65
2023/09/11 01:40:10;;;;;;;10.10;9.20;;;;;;;;;;6209678;28;20203;-65
2023/09/11 01:43:12;;;;;;;11.37;9.70;;;;;;;;;;6228382;28;20200;-65
2023/09/11 01:46:14;;;;;;;11.00;9.90;;;;;;;;;;6232885;28;20279;-65
2023/09/11 01:49:52;;;;;;;9.63;8.70;;;;;;;;;;6209367;28;20208;-65
2023/09/11 01:52:53;;;;;;;10.47;9.47;;;;;;;;;;6245475;28;20256;-65
2023/09/11 01:55:55;;;;;;;10.10;9.30;;;;;;;;;;6207638;28;20276;-65
2023/09/11 01:58:56;;;;;;;10.37;9.43;;;;;;;;;;6227003;28;20221;-65
2023/09/11 02:01:57;;;;;;;11.00;10.00;;;;;;;;;;6218969;28;20234;-65
2023/09/11 02:04:58;;;;;;;10.17;9.27;;;;;;;;;;6226250;28;20191;-65
2023/09/11 02:07:59;;;;;;;11.27;10.10;;;;;;;;;;6210217;28;20261;-65
2023/09/11 02:11:00;;;;;;;11.77;10.07;;;;;;;;;;6214032;28;20183;-65
2023/09/11 02:14:01;;;;;;;10.53;9.47;;;;;;;;;;6208731;28;20183;-65
2023/09/11 02:17:03;;;;;;;10.60;9.63;;;;;;;;;;6207939;28;20245;-65
2023/09/11 02:20:04;;;;;;;11.53;10.50;;;;;;;;;;6225944;28;20194;-65
2023/09/11 02:23:05;;;;;;;10.30;9.40;;;;;;;;;;6219305;28;20338;-65
2023/09/11 02:26:06;;;;;;;11.03;10.03;;;;;;;;;;6211857;28;20195;-65
2023/09/11 02:29:07;;;;;;;9.60;8.80;;;;;;;;;;6209713;28;20191;-65
2023/09/11 02:32:08;;;;;;;10.30;9.30;;;;;;;;;;6206184;28;20748;-65
2023/09/11 02:35:09;;;;;;;10.37;9.47;;;;;;;;;;6209501;28;20191;-65
2023/09/11 02:38:10;;;;;;;10.60;9.60;;;;;;;;;;6198922;28;20252;-65
2023/09/11 02:41:11;;;;;;;10.30;9.40;;;;;;;;;;6241722;28;20186;-65
2023/09/11 02:44:12;;;;;;;11.27;10.27;;;;;;;;;;6207468;28;20211;-65
2023/09/11 02:47:13;;;;;;;13.20;11.20;;;;;;;;;;6209324;28;20220;-65
2023/09/11 02:50:14;;;;;;;11.03;9.93;;;;;;;;;;6195040;28;20198;-66
2023/09/11 02:53:16;;;;;;;11.13;10.13;;;;;;;;;;6226306;28;20198;-65
2023/09/11 02:56:17;;;;;;;11.20;10.10;;;;;;;;;;6225404;28;20242;-65
2023/09/11 02:59:18;;;;;;;11.53;10.43;;;;;;;;;;6224625;28;20238;-65
2023/09/11 03:02:19;;;;;;;11.17;10.07;;;;;;;;;;6222477;28;20191;-65
2023/09/11 03:05:20;;;;;;;11.20;10.10;;;;;;;;;;6242189;28;20206;-65
2023/09/11 03:08:22;;;;;;;10.73;9.63;;;;;;;;;;6220086;28;20248;-65
2023/09/11 03:11:23;;;;;;;11.63;10.53;;;;;;;;;;6209340;28;20203;-65
2023/09/11 03:14:24;;;;;;;11.17;9.90;;;;;;;;;;6208836;28;20197;-65
2023/09/11 03:17:25;;;;;;;12.17;10.97;;;;;;;;;;6193646;28;20210;-65
2023/09/11 03:20:26;;;;;;;10.87;9.97;;;;;;;;;;6210596;28;20210;-65
2023/09/11 03:23:27;;;;;;;11.37;10.27;;;;;;;;;;6168582;28;1173501;-65
2023/09/11 03:26:28;;;;;;;11.73;10.50;;;;;;;;;;6225054;28;20219;-66
2023/09/11 03:29:29;;;;;;;11.60;10.50;;;;;;;;;;6209632;28;20807;-66
2023/09/11 03:32:30;;;;;;;11.40;10.27;;;;;;;;;;6241843;28;20182;-66
2023/09/11 03:35:31;;;;;;;11.20;10.30;;;;;;;;;;6226045;28;20202;-66
2023/09/11 03:38:32;;;;;;;11.50;10.40;;;;;;;;;;6212395;28;20202;-66
2023/09/11 03:41:33;;;;;;;11.73;10.63;;;;;;;;;;6208775;28;20195;-66
2023/09/11 03:44:34;;;;;;;13.17;9.93;;;;;;;;;;6226106;28;20262;-66
2023/09/11 03:47:35;;;;;;;11.80;10.50;;;;;;;;;;6191353;28;20215;-66
2023/09/11 03:50:36;;;;;;;12.00;10.80;;;;;;;;;;6214862;28;20188;-66
2023/09/11 03:53:42;;;;;;;10.97;10.00;;;;;;;;;;6221839;28;20266;-66
2023/09/11 03:56:43;;;;;;;11.27;10.23;;;;;;;;;;6222405;28;20202;-65
2023/09/11 03:59:44;;;;;;;11.37;10.30;;;;;;;;;;6209197;28;20202;-65
2023/09/11 04:02:45;;;;;;;11.73;10.73;;;;;;;;;;6206443;28;20229;-65
2023/09/11 04:05:46;;;;;;;12.00;10.57;;;;;;;;;;6208451;28;20209;-65
2023/09/11 04:08:48;;;;;;;11.03;9.97;;;;;;;;;;6208587;28;20211;-65
2023/09/11 04:11:50;;;;;;;11.07;10.17;;;;;;;;;;6209381;28;20179;-65
2023/09/11 04:14:51;;;;;;;11.37;10.30;;;;;;;;;;6204664;28;20217;-65
2023/09/11 04:17:56;;;;;;;11.83;10.73;;;;;;;;;;6208369;28;20203;-65
2023/09/11 04:21:04;;;;;;;11.77;10.67;;;;;;;;;;6202729;28;20204;-68
2023/09/11 04:24:12;;;;;;;13.87;11.27;;;;;;;;;;6208150;28;20247;-67
2023/09/11 04:27:13;;;;;;;11.80;10.70;;;;;;;;;;6214613;28;20235;-67
2023/09/11 04:30:17;;;;;;;13.87;11.57;;;;;;;;;;6223689;28;20237;-67
2023/09/11 04:33:18;;;;;;;11.50;10.40;;;;;;;;;;6206517;28;20196;-66
2023/09/11 04:36:19;;;;;;;11.43;10.33;;;;;;;;;;6217974;28;20194;-70
2023/09/11 04:39:23;;;;;;;11.03;10.03;;;;;;;;;;6201241;28;20195;-68
2023/09/11 04:42:24;;;;;;;11.97;10.77;;;;;;;;;;6220346;28;20189;-67
2023/09/11 04:45:25;;;;;;;12.57;11.40;;;;;;;;;;6211045;28;20199;-69
2023/09/11 04:48:26;;;;;;;11.63;10.43;;;;;;;;;;6207128;28;20264;-67
2023/09/11 04:51:27;;;;;;;13.27;10.87;;;;;;;;;;6206468;28;20314;-69
2023/09/11 04:54:28;;;;;;;11.00;9.90;;;;;;;;;;6197749;28;20196;-71
2023/09/11 04:57:29;;;;;;;12.20;11.03;;;;;;;;;;6191650;28;20198;-68
2023/09/11 05:00:30;;;;;;;12.27;11.03;;;;;;;;;;6203448;28;20194;-70
2023/09/11 05:03:31;;;;;;;11.30;10.20;;;;;;;;;;6217667;28;20330;-71
2023/09/11 05:06:33;;;;;;;11.60;10.60;;;;;;;;;;6218773;28;20250;-70
2023/09/11 05:09:34;;;;;;;12.87;11.30;;;;;;;;;;6222350;28;20222;-69
2023/09/11 05:12:35;;;;;;;12.03;11.03;;;;;;;;;;6206361;28;20222;-68
2023/09/11 05:15:36;;;;;;;11.60;10.40;;;;;;;;;;6198793;28;20342;-69
2023/09/11 05:18:37;;;;;;;11.67;10.47;;;;;;;;;;6202855;28;20192;-67
2023/09/11 05:21:38;;;;;;;12.57;11.37;;;;;;;;;;6218090;28;20211;-67
2023/09/11 05:24:39;;;;;;;13.87;10.00;;;;;;;;;;6224120;28;20238;-67
2023/09/11 05:27:40;;;;;;;12.33;11.23;;;;;;;;;;6219621;28;20218;-67
2023/09/11 05:30:41;;;;;;;12.30;10.07;;;;;;;;;;6223200;28;20222;-67
2023/09/11 05:33:42;;;;;;;12.50;11.20;;;;;;;;;;6199570;28;20187;-68
2023/09/11 05:36:43;;;;;;;12.10;10.53;;;;;;;;;;6212299;28;20196;-67
2023/09/11 05:39:45;;;;;;;12.07;10.87;;;;;;;;;;6219193;28;20199;-67
2023/09/11 05:42:46;;;;;;;12.80;11.07;;;;;;;;;;6204621;28;20235;-67
2023/09/11 05:45:47;;;;;;;11.97;10.90;;;;;;;;;;6207013;28;20200;-67
2023/09/11 05:48:48;;;;;;;12.00;10.80;;;;;;;;;;6207027;28;20221;-67
2023/09/11 05:51:49;;;;;;;13.43;10.43;;;;;;;;;;6205203;28;20202;-67
2023/09/11 05:54:50;;;;;;;13.00;11.80;;;;;;;;;;6201560;28;20199;-67
2023/09/11 05:57:51;;;;;;;12.30;11.10;;;;;;;;;;6213609;28;20249;-67
2023/09/11 06:00:53;;;;;;;13.10;11.83;;;;;;;;;;6199156;28;20192;-67
2023/09/11 06:03:54;;;;;;;14.83;11.93;;;;;;;;;;6202385;28;20208;-67
2023/09/11 06:06:55;;;;;;;11.77;10.70;;;;;;;;;;6208548;28;20226;-67
2023/09/11 06:09:56;;;;;;;12.53;11.23;;;;;;;;;;6209752;28;20195;-67
2023/09/11 06:12:57;;;;;;;12.43;11.23;;;;;;;;;;6217454;28;20200;-67
2023/09/11 06:15:58;;;;;;;12.73;11.43;;;;;;;;;;6216960;28;20186;-67
2023/09/11 06:18:59;;;;;;;12.90;11.73;;;;;;;;;;6214644;28;20223;-67
2023/09/11 06:22:00;;;;;;;14.30;12.90;;;;;;;;;;6215952;28;20250;-67
2023/09/11 06:25:02;;;;;;;12.27;11.17;;;;;;;;;;6215956;28;20239;-67
2023/09/11 06:28:03;;;;;;;12.57;11.30;;;;;;;;;;6217751;28;20263;-67
2023/09/11 06:31:04;;;;;;;13.70;12.20;;;;;;;;;;6204113;28;20192;-67
2023/09/11 06:34:05;;;;;;;13.43;12.13;;;;;;;;;;6209693;28;20241;-67
2023/09/11 06:37:09;;;;;;;13.43;12.13;;;;;;;;;;6214703;28;20223;-67
2023/09/11 06:40:10;;;;;;;12.80;11.50;;;;;;;;;;6215922;28;20198;-67
2023/09/11 06:43:11;;;;;;;12.70;11.50;;;;;;;;;;6226676;28;20195;-67
2023/09/11 06:46:13;;;;;;;15.23;13.63;;;;;;;;;;6211232;28;20223;-67
2023/09/11 06:49:14;;;;;;;13.13;11.60;;;;;;;;;;6241435;28;20187;-67
2023/09/11 06:52:16;;;;;;;12.70;11.50;;;;;;;;;;6211781;28;20184;-67
2023/09/11 06:55:17;;;;;;;12.90;11.70;;;;;;;;;;6210991;28;20199;-67
2023/09/11 06:58:18;;;;;;;13.73;12.40;;;;;;;;;;6226209;28;20195;-68
2023/09/11 07:01:19;;;;;;;13.53;12.23;;;;;;;;;;6219129;28;20224;-68
2023/09/11 07:04:20;;;;;;;13.27;11.97;;;;;;;;;;6208417;28;20290;-67
2023/09/11 07:07:21;;;;;;;13.73;12.43;;;;;;;;;;6226550;28;20232;-67
2023/09/11 07:10:22;;;;;;;13.27;12.07;;;;;;;;;;6209645;28;20196;-67
2023/09/11 07:13:23;;;;;;;12.70;11.40;;;;;;;;;;6215804;28;20192;-67
2023/09/11 07:16:25;;;;;;;13.17;11.80;;;;;;;;;;6207397;28;20203;-67
2023/09/11 07:19:26;;;;;;;12.30;11.10;;;;;;;;;;6225791;28;20188;-67
2023/09/11 07:22:27;;;;;;;13.97;12.47;;;;;;;;;;6207171;28;20190;-68
2023/09/11 07:25:28;;;;;;;13.17;11.87;;;;;;;;;;6203541;28;20284;-67
2023/09/11 07:28:29;;;;;;;12.87;11.77;;;;;;;;;;6203845;28;20222;-67
2023/09/11 07:31:30;;;;;;;12.07;11.00;;;;;;;;;;6205510;28;20256;-68
2023/09/11 07:34:31;;;;;;;13.20;11.83;;;;;;;;;;6220716;28;20218;-67
2023/09/11 07:37:33;;;;;;;11.70;10.57;;;;;;;;;;6225294;28;20278;-67
2023/09/11 07:40:34;;;;;;;12.17;10.97;;;;;;;;;;6217715;28;20193;-68
2023/09/11 07:43:35;;;;;;;11.50;10.40;;;;;;;;;;6204083;28;20202;-67
2023/09/11 07:46:36;;;;;;;13.20;11.83;;;;;;;;;;6217976;28;20223;-67
2023/09/11 07:49:37;;;;;;;13.87;12.03;;;;;;;;;;6202634;28;20195;-68
2023/09/11 07:52:38;;;;;;;12.50;11.30;;;;;;;;;;6202031;28;20192;-67
2023/09/11 07:55:39;;;;;;;12.13;11.07;;;;;;;;;;6214632;28;20241;-67
2023/09/11 07:58:40;;;;;;;13.87;12.47;;;;;;;;;;6207582;28;20192;-68
2023/09/11 08:01:41;;;;;;;12.87;11.57;;;;;;;;;;6215898;28;20187;-68
2023/09/11 08:04:42;;;;;;;13.80;12.13;;;;;;;;;;6223053;28;20206;-67
2023/09/11 08:07:43;;;;;;;13.67;12.37;;;;;;;;;;6217135;28;20208;-67
2023/09/11 08:10:44;;;;;;;12.23;11.10;;;;;;;;;;6225099;28;20214;-68
2023/09/11 08:13:46;;;;;;;12.43;11.37;;;;;;;;;;6232352;28;20288;-67
2023/09/11 08:16:47;;;;;;;12.93;11.80;;;;;;;;;;6222936;28;20199;-67
2023/09/11 08:19:49;;;;;;;13.10;11.90;;;;;;;;;;6204285;28;20258;-68
2023/09/11 08:22:50;;;;;;;11.57;10.57;;;;;;;;;;6203852;28;20201;-68
2023/09/11 08:25:56;;;;;;;12.60;11.30;;;16.20;83.50;;;;;;6216298;28;20195;-67
2023/09/11 08:28:56;;;;;;;11.87;10.87;;;18.20;83.60;;;;;;6219282;28;20223;-67
2023/09/11 08:31:57;;;;;;;12.43;11.37;;;18.30;83.20;;;;;;6187229;28;20233;-67
2023/09/11 08:34:58;;;;;;;12.37;11.27;;;18.40;83.50;;;;;;6203424;28;20188;-68
2023/09/11 08:37:58;;;;;;;11.53;10.53;;;18.40;82.80;;;;;;6224512;28;20195;-68
2023/09/11 08:40:59;;;;;;;11.27;10.37;;;18.50;82.90;;;;;;6197451;28;20202;-68
2023/09/11 08:44:00;;;;;;;13.53;11.33;;;;;;;;;;6197096;28;20211;-69
2023/09/11 08:47:03;;;;;;;11.50;10.40;;;;;;;;;;6213438;28;20285;-69
2023/09/11 08:50:05;;;;;;;12.83;11.63;;;;;;;;;;6216694;28;20255;-68
2023/09/11 08:53:07;;;;;;;12.83;11.70;;;;;;;;;;6214108;28;20203;-68
2023/09/11 08:56:08;;;;;;;12.60;11.53;;;;;;;;;;6219116;28;20219;-68
2023/09/11 08:59:11;;;;;;;11.80;10.57;;;;;;;;;;6216019;28;20191;-68
2023/09/11 09:02:13;;;;;;;11.57;10.50;;;;;;;;;;6216238;28;20250;-68
2023/09/11 09:05:14;;;;;;;11.47;10.30;;;;;;;;;;6223333;28;20203;-68
2023/09/11 09:08:16;;;;;;;11.83;10.63;;;;;;;;;;6203901;28;20245;-68
2023/09/11 09:11:17;;;;;;;11.13;10.03;;;;;;;;;;6206201;28;20199;-68
2023/09/11 09:14:18;;;;;;;10.87;9.97;;;;;;;;;;6210350;28;20195;-68
2023/09/11 09:17:19;;;;;;;11.40;10.40;;;;;;;;;;6218772;28;20195;-68
2023/09/11 09:20:20;;;;;;;11.27;10.27;;;;;;;;;;6206183;28;20265;-69
2023/09/11 09:23:32;;;;;;;11.53;10.60;;;;;;;;;;6204270;28;20247;-68
2023/09/11 09:26:33;;;;;;;13.40;10.03;;;;;;;;;;6202821;28;20278;-67
2023/09/11 09:29:35;;;;;;;10.60;9.60;;;;;;;;;;6200041;28;20231;-68
2023/09/11 09:32:36;;;;;;;10.70;9.70;;;;;;;;;;6203602;28;20192;-68
2023/09/11 09:35:38;;;;;;;13.30;10.33;;;;;;;;;;6203088;28;20199;-67
2023/09/11 09:38:39;;;;;;;12.20;10.27;;;;;;;;;;6206757;28;20317;-67
2023/09/11 09:41:41;;;;;;;13.00;10.53;;;;;;;;;;6212576;28;20199;-67
2023/09/11 09:44:47;;;;;;;10.50;9.60;;;24.00;50.00;;;;;;6223046;28;20198;-67
2023/09/11 09:48:05;;;;;;;14.37;10.23;;;21.30;72.10;;;;;;6223547;28;20215;-67
2023/09/11 09:51:05;;;;;;;11.20;9.93;;;21.40;72.30;;;;;;6198250;28;20219;-67
2023/09/11 09:54:06;;;;;;;11.00;9.90;;;21.50;72.50;;;;;;6176930;28;20197;-68
2023/09/11 09:57:10;;;;;;;11.37;10.27;;;21.50;72.30;;;;;;6185008;28;20203;-69
2023/09/11 10:00:16;;;;;;;12.23;10.33;;;21.50;73.00;;;;;;6219778;28;20231;-68
2023/09/11 10:03:17;;;;;;;10.77;9.77;;;21.50;72.50;;;;;;6194202;28;20215;-68
2023/09/11 10:06:27;;;;;;;10.60;9.60;;;21.50;73.00;;;;;;6202355;28;20314;-68
2023/09/11 10:09:27;;;;;;;10.87;9.87;;;21.50;72.70;;;;;;6192950;28;20256;-68
2023/09/11 10:12:28;;;;;;;10.77;9.67;;;21.50;73.00;;;;;;6214928;28;20198;-69
2023/09/11 10:15:30;;;;;;;11.30;10.30;;;;;;;;;;6193015;28;20198;-68
2023/09/11 10:18:34;;;;;;;10.33;9.33;;;;;;;;;;6221303;28;20195;-68
2023/09/11 10:21:34;;;;;;;10.67;9.57;;;24.00;50.00;;;;;;6225880;28;20203;-69
2023/09/11 10:24:35;;;;;;;11.40;10.17;;;22.00;72.30;;;;;;6190357;28;20232;-69
2023/09/11 10:27:36;;;;;;;10.63;9.53;;;22.10;70.90;;;;;;6193076;28;20218;-69
2023/09/11 10:30:55;;;;;;;10.27;9.17;;;22.10;72.20;;;;;;6188990;28;20234;-69
2023/09/11 10:33:57;;;;;;;22.23;16.77;;;22.20;71.90;;;;;;6228819;28;20200;-68
2023/09/11 10:36:59;;;;;;;11.13;10.03;;;22.30;70.80;;;;;;6220619;28;20206;-68
2023/09/11 10:40:00;;;;;;;10.23;9.20;;;22.40;71.70;;;;;;6214196;28;20195;-68
2023/09/11 10:43:01;;;;;;;10.33;9.30;;;22.50;71.10;;;;;;6218674;28;20202;-67
2023/09/11 10:46:31;;;;;;;10.33;8.83;;;22.80;68.10;;;;;;6201048;28;20206;-68
2023/09/11 10:49:40;;;;;;;10.57;9.53;;;22.90;69.60;;;;;;6219502;28;20197;-68
2023/09/11 10:52:41;;;;;;;10.33;9.43;;;23.00;70.40;;;;;;6216418;28;20183;-68
2023/09/11 10:55:42;;;;;;;9.90;9.00;;;23.00;70.00;;;;;;6194391;28;20294;-68
2023/09/11 10:58:43;;;;;;;10.00;9.10;;;23.10;70.30;;;;;;6220911;28;20210;-70
2023/09/11 11:01:46;;;;;;;10.47;9.67;;;23.20;71.00;;;;;;6191921;28;20196;-68
2023/09/11 11:04:47;;;;;;;12.37;10.00;;;23.20;70.50;;;;;;6208131;28;20218;-67
2023/09/11 11:07:50;;;;;;;9.93;8.90;;;23.30;69.50;;;;;;6175912;28;20227;-67
2023/09/11 11:10:58;;;;;;;80.70;73.10;;;;;;;;;;6203528;28;20192;-67
2023/09/11 11:14:18;;;;;;;9.80;9.00;;;23.50;68.80;;;;;;6214266;28;20246;-68
2023/09/11 11:17:19;;;;;;;10.40;9.20;;;23.80;68.70;;;;;;6207263;28;20343;-68
2023/09/11 11:20:20;;;;;;;10.50;9.43;;;23.90;66.70;;;;;;6207635;28;20221;-65
2023/09/11 11:23:25;;;;;;;9.83;9.13;;;24.00;68.60;;;;;;6210074;28;20244;-65
2023/09/11 11:26:30;;;;;;;12.23;9.83;;;24.00;69.80;;;;;;6225369;28;20199;-65
2023/09/11 11:29:31;;;;;;;10.90;10.00;;;24.20;67.10;;;;;;6219111;28;20184;-65
2023/09/11 11:32:34;;;;;;;9.57;8.83;;;;;;;;;;6195419;28;20275;-65
2023/09/11 11:35:36;;;;;;;9.63;8.93;;;24.40;66.90;;;;;;6225726;28;20215;-65
2023/09/11 11:38:38;;;;;;;9.97;9.07;;;24.50;67.30;;;;;;6192718;28;20195;-65
2023/09/11 11:41:39;;;;;;;10.67;9.67;;;24.60;67.20;;;;;;6209944;28;20258;-65
2023/09/11 11:44:41;;;;;;;10.17;9.23;;;24.00;50.00;;;;;;6197601;28;20337;-65
2023/09/11 11:47:42;;;;;;;9.73;8.83;;;;;;;;;;6206803;28;20222;-65
2023/09/11 11:50:44;;;;;;;10.63;9.67;;;25.00;64.30;;;;;;6205879;28;20195;-65
2023/09/11 11:53:45;;;;;;;9.20;8.50;;;25.40;65.00;;;;;;6214840;28;20184;-64
2023/09/11 11:56:46;;;;;;;9.77;8.87;;;25.40;64.20;;;;;;6190577;28;20192;-65
2023/09/11 11:59:47;;;;;;;10.47;9.57;;;;;;;;;;6210161;28;20202;-65
2023/09/11 12:02:48;;;;;;;11.43;9.43;;;;;;;;;;6209700;28;20323;-65
2023/09/11 12:05:49;;;;;;;9.07;8.30;;;;;;;;;;6208933;28;20195;-65
2023/09/11 12:08:50;;;;;;;9.77;8.97;;;25.60;63.90;;;;;;6201891;28;25080;-65
2023/09/11 12:11:52;;;;;;;8.23;7.53;;;;;;;;;;6192617;28;20192;-65
2023/09/11 12:14:56;;;;;;;8.00;7.30;;;;;;;;;;6221422;28;20188;-65
2023/09/11 12:17:57;;;;;;;8.30;7.03;;;;;;;;;;6222561;28;20187;-65
2023/09/11 12:20:59;;;;;;;7.97;6.80;;;;;;;;;;6195332;28;20209;-66
2023/09/11 12:24:00;;;;;;;7.27;6.67;;;;;;;;;;6194417;28;20243;-65
2023/09/11 12:27:01;;;;;;;7.00;6.40;;;37.50;40.10;;;;;;6212195;28;20215;-63
2023/09/11 12:30:05;;;;;;;6.50;5.88;;;;;;;;;;6233049;28;20259;-64
2023/09/11 12:33:09;;;;;;;6.30;5.80;;;;;;;;;;6210424;28;20188;-64
2023/09/11 12:36:10;;;;;;;5.55;5.15;;;;;;;;;;6194661;28;20212;-64
2023/09/11 12:39:12;;;;;;;6.32;5.18;;;;;;;;;;6199651;28;20286;-64
2023/09/11 12:42:13;;;;;;;5.30;4.82;;;;;;;;;;6200272;28;20191;-63
2023/09/11 12:45:14;;;;;;;5.85;5.35;;;;;;;;;;6204150;28;20202;-64
2023/09/11 12:48:17;;;;;;;6.32;5.93;;;;;;;;;;6201451;28;20203;-65
2023/09/11 12:51:18;;;;;;;6.30;5.80;;;38.20;37.90;;;;;;6212424;28;20187;-65
2023/09/11 12:54:19;;;;;;;6.20;5.80;;;36.70;39.00;;;;;;6201713;28;20194;-64
2023/09/11 12:57:20;;;;;;;6.82;6.18;;;;;;;;;;6191592;28;20194;-65
2023/09/11 13:00:21;;;;;;;7.00;6.47;;;;;;;;;;6219284;28;20277;-65
2023/09/11 13:03:22;;;;;;;6.05;5.65;;;-22.40;36.00;;;;;;6197750;28;20216;-64
2023/09/11 13:06:23;;;;;;;5.53;5.13;;;;;;;;;;6190118;28;20195;-65
2023/09/11 13:09:25;;;;;;;6.05;5.32;;;39.30;35.90;;;;;;6210117;28;20259;-65
2023/09/11 13:12:26;;;;;;;5.78;5.28;;;;;;;;;;6230232;28;20215;-65
2023/09/11 13:15:27;;;;;;;5.82;5.32;;;;;;;;;;6207188;28;20191;-65
2023/09/11 13:18:28;;;;;;;5.03;4.63;;;41.40;33.30;;;;;;6222605;28;20222;-65
2023/09/11 13:21:28;;;;;;;5.25;4.85;;;42.80;30.60;;;;;;6187365;28;20194;-65
2023/09/11 13:24:29;;;;;;;5.10;4.80;;;43.00;29.90;;;;;;6202972;28;20242;-65
2023/09/11 13:27:31;;;;;;;5.82;5.18;;;;;;;;;;6187070;28;20217;-65
2023/09/11 13:30:33;;;;;;;5.57;5.05;;;;;;;;;;6226440;28;20187;-64
2023/09/11 13:33:34;;;;;;;5.57;5.07;;;;;;;;;;6220451;28;20197;-65
2023/09/11 13:36:36;;;;;;;5.03;4.72;;;;;;;;;;6203801;28;20192;-62
2023/09/11 13:39:37;;;;;;;7.32;5.22;;;;;;;;;;6209066;28;20202;-66
2023/09/11 13:42:38;;;;;;;4.43;4.07;;;;;;;;;;6207934;28;20187;-64
2023/09/11 13:45:39;;;;;;;5.00;4.72;;;;;;;;;;6224601;28;20212;-65
2023/09/11 13:48:40;;;;;;;5.28;4.70;;;;;;;;;;6211022;28;20217;-65
2023/09/11 13:51:41;;;;;;;4.88;4.55;;;;;;;;;;6203099;28;20191;-68
2023/09/11 13:54:44;;;;;;;6.25;4.75;;;;;;;;;;6196825;28;20191;-68
2023/09/11 13:57:45;;;;;;;5.18;4.50;;;;;;;;;;6212870;28;20195;-68
2023/09/11 14:00:46;;;;;;;5.00;4.70;;;;;;;;;;6204775;28;20230;-68
2023/09/11 14:03:47;;;;;;;5.22;4.70;;;44.90;28.20;;;;;;6210295;28;20238;-67
2023/09/11 14:06:48;;;;;;;5.35;4.90;;;44.40;28.40;;;;;;6187014;28;20224;-69
2023/09/11 14:09:48;;;;;;;5.28;4.47;;;44.40;29.00;;;;;;6193022;28;20194;-66
2023/09/11 14:12:49;;;;;;;4.80;4.40;;;44.40;29.50;;;;;;6208332;28;20282;-67
2023/09/11 14:15:50;;;;;;;4.65;4.32;;;45.00;28.90;;;;;;6188630;28;20193;-62
2023/09/11 14:18:50;;;;;;;4.97;4.57;;;44.70;27.80;;;;;;6206827;28;20195;-65
2023/09/11 14:21:51;;;;;;;5.07;4.40;;;44.70;28.20;;;;;;6210354;28;20192;-67
2023/09/11 14:24:52;;;;;;;4.78;4.43;;;44.70;27.90;;;;;;6204533;28;20244;-64
2023/09/11 14:27:52;;;;;;;4.50;4.20;;;44.60;29.00;;;;;;6203969;28;20247;-64
2023/09/11 14:30:53;;;;;;;4.80;4.40;;;44.30;28.50;;;;;;6203902;28;20281;-64
2023/09/11 14:33:54;;;;;;;4.70;4.40;;;44.40;28.30;;;;;;6195011;28;20195;-64
2023/09/11 14:36:55;;;;;;;7.55;4.28;;;;;;;;;;6224362;28;20302;-64
2023/09/11 14:39:56;;;;;;;4.90;4.50;;;44.10;28.50;;;;;;6207522;28;20626;-63
2023/09/11 14:42:57;;;;;;;5.00;4.63;;;;;;;;;;6193303;28;20199;-63
2023/09/11 14:45:57;;;;;;;5.05;4.68;;;41.60;32.80;;;;;;6214874;28;20237;-63
2023/09/11 14:48:58;;;;;;;6.00;4.60;;;40.60;33.90;;;;;;6189741;28;20223;-63
2023/09/11 14:51:59;;;;;;;5.57;4.95;;;;;;;;;;6212197;28;20222;-63
2023/09/11 14:55:00;;;;;;;5.88;4.80;;;39.60;34.70;;;;;;6209031;28;20187;-64
2023/09/11 14:58:01;;;;;;;5.32;4.95;;;;;;;;;;6186930;28;20214;-63
2023/09/11 15:01:02;;;;;;;5.60;5.10;;;38.20;36.70;;;;;;6203307;28;20195;-64
2023/09/11 15:04:02;;;;;;;6.43;4.90;;;37.30;35.90;;;;;;6190670;28;20191;-63
2023/09/11 15:07:03;;;;;;;5.82;5.30;;;37.10;37.50;;;;;;6184776;28;20211;-63
2023/09/11 15:10:04;;;;;;;12.25;5.93;;;;;;;;;;6209120;28;20278;-65
2023/09/11 15:13:05;;;;;;;6.35;5.75;;;;;;;;;;6202854;28;20196;-65
2023/09/11 15:16:06;;;;;;;6.23;5.57;;;;;;;;;;6211736;28;20194;-63
2023/09/11 15:19:08;;;;;;;6.03;5.43;;;;;;;;;;6215462;28;20199;-65
2023/09/11 15:22:09;;;;;;;6.37;5.70;;;;;;;;;;6206318;28;20205;-65
2023/09/11 15:25:10;;;;;;;7.10;6.50;;;37.00;37.80;;;;;;6198301;28;20270;-65
2023/09/11 15:28:10;;;;;;;11.23;6.70;;;34.60;41.40;;;;;;6192141;28;20220;-65
2023/09/11 15:31:11;;;;;;;9.43;7.40;;;34.00;42.30;;;;;;6202364;28;20401;-65
2023/09/11 15:34:13;;;;;;;7.40;6.70;;;-22.10;40.00;;;;;;6179595;28;20349;-65
2023/09/11 15:37:17;;;;;;;7.83;7.03;;;;;;;;;;6187744;28;20205;-65
2023/09/11 15:40:18;;;;;;;7.87;7.27;;;;;;;;;;6203204;28;20195;-65
2023/09/11 15:43:19;;;;;;;7.43;6.77;;;;;;;;;;6209563;28;20211;-65
2023/09/11 15:46:20;;;;;;;7.30;6.70;;;;;;;;;;6205778;28;20215;-65
2023/09/11 15:49:21;;;;;;;7.37;6.77;;;32.10;45.90;;;;;;6205075;28;20215;-65
2023/09/11 15:52:22;;;;;;;7.87;7.17;;;;;;;;;;6189620;28;20202;-65
2023/09/11 15:55:23;;;;;;;8.20;7.43;;;;;;;;;;6205270;28;20226;-65
2023/09/11 15:58:25;;;;;;;7.70;7.10;;;;;;;;;;6215134;28;20195;-65
2023/09/11 16:01:26;;;;;;;8.13;7.43;;;;;;;;;;6208631;28;20195;-65
2023/09/11 16:04:27;;;;;;;7.53;6.77;;;;;;;;;;6203219;28;20195;-65
2023/09/11 16:07:28;;;;;;;7.93;7.33;;;31.30;48.70;;;;;;6208187;28;20215;-64
2023/09/11 16:10:29;;;;;;;8.50;7.70;;;;;;;;;;6190771;28;20225;-64
2023/09/11 16:13:30;;;;;;;8.10;7.50;;;;;;;;;;6222054;28;20225;-65
2023/09/11 16:16:33;;;;;;;8.07;7.20;;;30.00;52.20;;;;;;6203989;28;20194;-65
2023/09/11 16:19:34;;;;;;;8.73;7.90;;;29.50;53.80;;;;;;6192165;28;20282;-66
2023/09/11 16:22:36;;;;;;;8.63;7.87;;;29.20;54.30;;;;;;6211327;28;20286;-65
2023/09/11 16:25:38;;;;;;;8.50;7.73;;;28.90;54.70;;;;;;6181224;28;20251;-66
2023/09/11 16:28:39;;;;;;;8.33;7.73;;;28.70;55.00;;;;;;6208678;28;20265;-65
2023/09/11 16:31:40;;;;;;;8.73;8.07;;;28.50;55.50;;;;;;6195216;28;20184;-65
2023/09/11 16:34:42;;;;;;;8.43;7.80;;;28.30;55.70;;;;;;6227173;28;20195;-65
2023/09/11 16:37:43;;;;;;;7.77;7.17;;;;;;;;;;6180135;28;20203;-65
2023/09/11 16:40:44;;;;;;;8.73;8.03;;;;;;;;;;6197367;28;20195;-65
2023/09/11 16:43:46;;;;;;;8.33;7.60;;;;;;;;;;6208167;28;20199;-65
2023/09/11 16:46:47;;;;;;;10.00;8.43;;;;;;;;;;6197096;28;20254;-65
2023/09/11 16:49:48;;;;;;;8.73;7.97;;;;;;;;;;6212527;28;20198;-66
2023/09/11 16:52:50;;;;;;;8.23;7.50;;;;;;;;;;6200304;28;20191;-65
2023/09/11 16:55:51;;;;;;;8.80;7.93;;;;;;;;;;6199607;28;20192;-64
2023/09/11 16:58:53;;;;;;;9.43;7.77;;;;;;;;;;6218647;28;20199;-64
2023/09/11 17:01:54;;;;;;;8.80;8.10;;;;;;;;;;6195580;28;20226;-65